createdAt,value
2019-02-20T00:00:30.402Z,22.91
2019-02-20T00:01:30.381Z,22.92
2019-02-20T00:02:30.371Z,22.97
2019-02-20T00:03:30.371Z,22.96
2019-02-20T00:04:30.346Z,22.85
2019-02-20T00:05:30.349Z,22.89
2019-02-20T00:06:30.327Z,22.92
2019-02-20T00:07:30.316Z,22.94
2019-02-20T00:08:30.300Z,22.88
2019-02-20T00:09:30.295Z,22.94
2019-02-20T00:10:30.295Z,22.89
2019-02-20T00:11:30.269Z,22.96
2019-02-20T00:12:30.267Z,22.92
2019-02-20T00:13:30.247Z,22.91
2019-02-20T00:14:30.233Z,22.86
2019-02-20T00:15:30.259Z,22.92
2019-02-20T00:16:30.227Z,22.89
2019-02-20T00:17:30.202Z,22.92
2019-02-20T00:18:30.192Z,22.85
2019-02-20T00:19:30.183Z,22.91
2019-02-20T00:20:30.169Z,22.96
2019-02-20T00:21:30.169Z,22.94
2019-02-20T00:22:30.146Z,22.88
2019-02-20T00:23:30.135Z,22.97
2019-02-20T00:24:30.123Z,22.96
2019-02-20T00:25:30.114Z,22.91
2019-02-20T00:26:30.138Z,22.96
2019-02-20T00:27:30.092Z,22.94
2019-02-20T00:28:30.092Z,22.96
2019-02-20T00:29:30.082Z,22.86
2019-02-20T00:30:30.062Z,22.88
2019-02-20T00:31:30.066Z,22.85
2019-02-20T00:32:30.035Z,22.91
2019-02-20T00:33:30.026Z,22.88
2019-02-20T00:34:30.016Z,22.89
2019-02-20T00:35:30.004Z,22.86
2019-02-20T00:36:30.006Z,22.86
2019-02-20T00:37:29.981Z,22.86
2019-02-20T00:38:29.969Z,22.89
2019-02-20T00:39:29.961Z,22.85
2019-02-20T00:40:29.948Z,22.94
2019-02-20T00:41:29.948Z,22.89
2019-02-20T00:42:29.933Z,22.88
2019-02-20T00:43:29.918Z,22.88
2019-02-20T00:44:29.903Z,22.92
2019-02-20T00:45:29.897Z,22.92
2019-02-20T00:46:29.893Z,22.89
2019-02-20T00:47:29.876Z,22.92
2019-02-20T00:48:29.881Z,22.86
2019-02-20T00:49:29.865Z,22.86
2019-02-20T00:50:29.839Z,22.88
2019-02-20T00:51:29.846Z,22.92
2019-02-20T00:52:29.816Z,22.91
2019-02-20T00:53:29.805Z,22.92
2019-02-20T00:54:29.792Z,22.89
2019-02-20T00:55:29.792Z,22.91
2019-02-20T00:56:29.782Z,22.85
2019-02-20T00:57:29.763Z,22.94
2019-02-20T00:58:29.753Z,22.92
2019-02-20T00:59:29.737Z,22.88
2019-02-20T01:00:29.731Z,22.96
2019-02-20T01:01:29.730Z,22.91
2019-02-20T01:02:29.705Z,22.82
2019-02-20T01:03:29.691Z,22.91
2019-02-20T01:04:29.679Z,22.88
2019-02-20T01:05:29.670Z,22.94
2019-02-20T01:06:29.673Z,22.88
2019-02-20T01:07:29.647Z,22.89
2019-02-20T01:08:29.637Z,22.89
2019-02-20T01:09:29.626Z,22.91
2019-02-20T01:10:29.614Z,22.86
2019-02-20T01:11:29.615Z,22.84
2019-02-20T01:12:29.606Z,22.91
2019-02-20T01:13:29.582Z,22.92
2019-02-20T01:14:29.574Z,22.82
2019-02-20T01:15:29.560Z,22.86
2019-02-20T01:16:29.560Z,22.94
2019-02-20T01:17:29.540Z,22.89
2019-02-20T01:18:29.525Z,22.88
2019-02-20T01:19:29.518Z,22.88
2019-02-20T01:20:29.503Z,22.92
2019-02-20T01:21:29.503Z,22.91
2019-02-20T01:22:29.490Z,22.86
2019-02-20T01:23:29.472Z,22.92
2019-02-20T01:24:29.460Z,22.88
2019-02-20T01:25:29.449Z,22.88
2019-02-20T01:26:29.448Z,22.92
2019-02-20T01:27:29.427Z,22.86
2019-02-20T01:28:29.415Z,22.88
2019-02-20T01:29:29.404Z,22.86
2019-02-20T01:30:29.392Z,22.88
2019-02-20T01:31:29.394Z,22.89
2019-02-20T01:32:29.387Z,22.86
2019-02-20T01:33:29.361Z,22.85
2019-02-20T01:34:29.353Z,22.89
2019-02-20T01:35:29.396Z,22.85
2019-02-20T01:36:29.338Z,22.88
2019-02-20T01:37:29.314Z,22.89
2019-02-20T01:38:29.304Z,22.92
2019-02-20T01:39:29.293Z,22.89
2019-02-20T01:40:29.283Z,22.85
2019-02-20T01:41:29.297Z,22.91
2019-02-20T01:42:29.286Z,22.86
2019-02-20T01:43:29.249Z,22.88
2019-02-20T01:44:29.244Z,22.84
2019-02-20T01:45:29.227Z,22.88
2019-02-20T01:46:29.215Z,22.86
2019-02-20T01:47:29.217Z,22.84
2019-02-20T01:48:29.193Z,22.85
2019-02-20T01:49:29.182Z,22.86
2019-02-20T01:50:29.182Z,22.84
2019-02-20T01:51:29.160Z,22.85
2019-02-20T01:52:29.159Z,22.84
2019-02-20T01:53:29.138Z,22.88
2019-02-20T01:54:29.126Z,22.88
2019-02-20T01:55:29.116Z,22.84
2019-02-20T01:56:29.107Z,22.85
2019-02-20T01:57:29.119Z,22.84
2019-02-20T01:58:29.106Z,22.84
2019-02-20T01:59:29.075Z,22.81
2019-02-20T02:00:29.064Z,22.86
2019-02-20T02:01:29.050Z,22.86
2019-02-20T02:02:29.052Z,22.84
2019-02-20T02:03:29.029Z,22.88
2019-02-20T02:04:29.016Z,22.86
2019-02-20T02:05:29.013Z,22.85
2019-02-20T02:06:28.996Z,22.84
2019-02-20T02:07:28.998Z,22.85
2019-02-20T02:08:29.002Z,22.81
2019-02-20T02:09:28.961Z,22.79
2019-02-20T02:10:28.950Z,22.86
2019-02-20T02:11:28.938Z,22.86
2019-02-20T02:12:28.940Z,22.86
2019-02-20T02:13:28.926Z,22.82
2019-02-20T02:14:28.941Z,22.82
2019-02-20T02:15:28.894Z,22.84
2019-02-20T02:16:28.884Z,22.85
2019-02-20T02:17:28.884Z,22.88
2019-02-20T02:18:28.862Z,22.92
2019-02-20T02:19:28.856Z,22.85
2019-02-20T02:20:28.844Z,22.81
2019-02-20T02:21:28.845Z,22.81
2019-02-20T02:22:28.829Z,22.88
2019-02-20T02:23:28.807Z,22.85
2019-02-20T02:24:28.798Z,22.84
2019-02-20T02:25:28.803Z,22.85
2019-02-20T02:26:28.774Z,22.84
2019-02-20T02:27:28.774Z,22.81
2019-02-20T02:28:28.757Z,22.84
2019-02-20T02:29:28.739Z,22.84
2019-02-20T02:30:28.731Z,22.82
2019-02-20T02:31:28.733Z,22.85
2019-02-20T02:32:28.718Z,22.82
2019-02-20T02:33:28.701Z,22.82
2019-02-20T02:34:28.701Z,22.85
2019-02-20T02:35:28.673Z,22.79
2019-02-20T02:36:28.666Z,22.81
2019-02-20T02:37:28.679Z,22.82
2019-02-20T02:38:28.648Z,22.89
2019-02-20T02:39:28.630Z,22.84
2019-02-20T02:40:28.618Z,22.85
2019-02-20T02:41:28.633Z,22.81
2019-02-20T02:42:28.598Z,22.86
2019-02-20T02:43:28.600Z,22.84
2019-02-20T02:44:28.595Z,22.84
2019-02-20T02:45:28.563Z,22.78
2019-02-20T02:46:28.552Z,22.84
2019-02-20T02:47:28.547Z,22.84
2019-02-20T02:48:28.545Z,22.86
2019-02-20T02:49:28.524Z,22.82
2019-02-20T02:50:28.508Z,22.79
2019-02-20T02:51:28.496Z,22.81
2019-02-20T02:52:28.486Z,22.81
2019-02-20T02:53:30.928Z,22.79
2019-02-20T02:54:28.471Z,22.81
2019-02-20T02:55:28.453Z,22.81
2019-02-20T02:56:28.441Z,22.81
2019-02-20T02:57:28.433Z,22.81
2019-02-20T02:58:28.434Z,22.76
2019-02-20T02:59:28.424Z,22.82
2019-02-20T03:00:28.398Z,22.79
2019-02-20T03:01:28.386Z,22.82
2019-02-20T03:02:28.376Z,22.85
2019-02-20T03:03:28.380Z,22.79
2019-02-20T03:04:28.356Z,22.82
2019-02-20T03:05:28.353Z,22.84
2019-02-20T03:06:28.332Z,22.84
2019-02-20T03:07:28.335Z,22.81
2019-02-20T03:08:28.323Z,22.84
2019-02-20T03:09:28.298Z,22.79
2019-02-20T03:10:28.289Z,22.81
2019-02-20T03:11:28.277Z,22.79
2019-02-20T03:12:28.265Z,22.84
2019-02-20T03:13:28.269Z,22.76
2019-02-20T03:14:28.246Z,22.81
2019-02-20T03:15:28.234Z,22.79
2019-02-20T03:16:28.220Z,22.81
2019-02-20T03:17:28.242Z,22.81
2019-02-20T03:18:28.209Z,22.88
2019-02-20T03:19:28.190Z,22.78
2019-02-20T03:20:28.178Z,22.82
2019-02-20T03:21:28.165Z,22.76
2019-02-20T03:22:28.154Z,22.81
2019-02-20T03:23:28.156Z,22.82
2019-02-20T03:24:28.140Z,22.79
2019-02-20T03:25:28.122Z,22.85
2019-02-20T03:26:28.113Z,22.82
2019-02-20T03:27:28.102Z,22.79
2019-02-20T03:28:28.100Z,22.81
2019-02-20T03:29:28.078Z,22.85
2019-02-20T03:30:28.080Z,22.78
2019-02-20T03:31:28.084Z,22.81
2019-02-20T03:32:28.047Z,22.82
2019-02-20T03:33:28.045Z,22.81
2019-02-20T03:34:28.023Z,22.81
2019-02-20T03:35:28.013Z,22.79
2019-02-20T03:36:28.000Z,22.86
2019-02-20T03:37:27.991Z,22.78
2019-02-20T03:38:30.575Z,22.79
2019-02-20T03:39:27.970Z,22.82
2019-02-20T03:40:27.980Z,22.81
2019-02-20T03:41:27.945Z,22.82
2019-02-20T03:42:27.936Z,22.81
2019-02-20T03:43:27.938Z,22.79
2019-02-20T03:44:27.912Z,22.82
2019-02-20T03:45:27.906Z,22.84
2019-02-20T03:46:27.890Z,22.79
2019-02-20T03:47:27.879Z,22.81
2019-02-20T03:48:27.902Z,22.86
2019-02-20T03:49:27.861Z,22.81
2019-02-20T03:50:27.848Z,22.85
2019-02-20T03:51:27.834Z,22.85
2019-02-20T03:52:27.823Z,22.85
2019-02-20T03:53:27.819Z,22.81
2019-02-20T03:54:27.814Z,22.78
2019-02-20T03:55:27.790Z,22.76
2019-02-20T03:56:27.797Z,22.78
2019-02-20T03:57:27.768Z,22.82
2019-02-20T03:58:27.760Z,22.81
2019-02-20T03:59:27.757Z,22.82
2019-02-20T04:00:27.737Z,22.79
2019-02-20T04:01:27.728Z,22.85
2019-02-20T04:02:27.712Z,22.84
2019-02-20T04:03:27.726Z,22.76
2019-02-20T04:04:27.703Z,22.78
2019-02-20T04:05:27.679Z,22.76
2019-02-20T04:06:27.669Z,22.84
2019-02-20T04:07:27.662Z,22.78
2019-02-20T04:08:27.650Z,22.86
2019-02-20T04:09:27.648Z,22.81
2019-02-20T04:10:27.625Z,22.82
2019-02-20T04:11:27.614Z,22.82
2019-02-20T04:12:27.611Z,22.78
2019-02-20T04:13:27.592Z,22.85
2019-02-20T04:14:27.606Z,22.82
2019-02-20T04:15:27.570Z,22.85
2019-02-20T04:16:27.569Z,22.78
2019-02-20T04:17:27.553Z,22.75
2019-02-20T04:18:27.548Z,22.73
2019-02-20T04:19:27.538Z,22.76
2019-02-20T04:20:27.514Z,22.79
2019-02-20T04:21:27.502Z,22.79
2019-02-20T04:22:27.494Z,22.76
2019-02-20T04:23:27.482Z,22.79
2019-02-20T04:24:27.485Z,22.79
2019-02-20T04:25:27.461Z,22.84
2019-02-20T04:26:27.471Z,22.76
2019-02-20T04:27:27.451Z,22.79
2019-02-20T04:28:27.426Z,22.81
2019-02-20T04:29:27.440Z,22.82
2019-02-20T04:30:27.416Z,22.81
2019-02-20T04:31:27.399Z,22.81
2019-02-20T04:32:27.382Z,22.84
2019-02-20T04:33:27.370Z,22.84
2019-02-20T04:34:27.372Z,22.82
2019-02-20T04:35:27.351Z,22.81
2019-02-20T04:36:27.337Z,22.78
2019-02-20T04:37:27.328Z,22.84
2019-02-20T04:38:27.328Z,22.78
2019-02-20T04:39:27.335Z,22.79
2019-02-20T04:40:27.294Z,22.84
2019-02-20T04:41:27.286Z,22.81
2019-02-20T04:42:27.276Z,22.82
2019-02-20T04:43:27.262Z,22.79
2019-02-20T04:44:27.260Z,22.76
2019-02-20T04:45:27.257Z,22.78
2019-02-20T04:46:27.229Z,22.79
2019-02-20T04:47:27.216Z,22.84
2019-02-20T04:48:27.219Z,22.81
2019-02-20T04:49:27.224Z,22.81
2019-02-20T04:50:27.184Z,22.79
2019-02-20T04:51:27.173Z,22.85
2019-02-20T04:52:27.162Z,22.78
2019-02-20T04:53:27.152Z,22.79
2019-02-20T04:54:27.181Z,22.75
2019-02-20T04:55:27.127Z,22.82
2019-02-20T04:56:27.118Z,22.78
2019-02-20T04:57:27.106Z,22.81
2019-02-20T04:58:27.096Z,22.76
2019-02-20T04:59:27.084Z,22.76
2019-02-20T05:00:27.086Z,22.82
2019-02-20T05:01:27.063Z,22.81
2019-02-20T05:02:27.051Z,22.79
2019-02-20T05:03:27.039Z,22.75
2019-02-20T05:04:27.030Z,22.81
2019-02-20T05:05:27.040Z,22.79
2019-02-20T05:06:27.006Z,22.75
2019-02-20T05:07:26.999Z,22.73
2019-02-20T05:08:26.984Z,22.82
2019-02-20T05:09:26.974Z,22.75
2019-02-20T05:10:26.975Z,22.79
2019-02-20T05:11:27.023Z,22.79
2019-02-20T05:12:26.954Z,22.75
2019-02-20T05:13:26.929Z,22.76
2019-02-20T05:14:26.950Z,22.78
2019-02-20T05:15:26.925Z,22.78
2019-02-20T05:16:26.897Z,22.81
2019-02-20T05:17:26.886Z,22.73
2019-02-20T05:18:26.875Z,22.75
2019-02-20T05:19:26.862Z,22.76
2019-02-20T05:20:26.863Z,22.76
2019-02-20T05:21:26.848Z,22.76
2019-02-20T05:22:26.830Z,22.78
2019-02-20T05:23:26.819Z,22.76
2019-02-20T05:24:26.808Z,22.75
2019-02-20T05:25:26.820Z,22.81
2019-02-20T05:26:26.804Z,22.75
2019-02-20T05:27:26.776Z,22.70
2019-02-20T05:28:26.769Z,22.73
2019-02-20T05:29:26.752Z,22.73
2019-02-20T05:30:26.754Z,22.73
2019-02-20T05:31:26.729Z,22.75
2019-02-20T05:32:26.719Z,22.79
2019-02-20T05:33:26.710Z,22.78
2019-02-20T05:34:26.697Z,22.79
2019-02-20T05:35:26.714Z,22.75
2019-02-20T05:36:26.682Z,22.81
2019-02-20T05:37:26.665Z,22.70
2019-02-20T05:38:26.653Z,22.71
2019-02-20T05:39:26.640Z,22.71
2019-02-20T05:40:26.656Z,22.76
2019-02-20T05:41:26.631Z,22.76
2019-02-20T05:42:26.609Z,22.75
2019-02-20T05:43:26.597Z,22.71
2019-02-20T05:44:26.587Z,22.71
2019-02-20T05:45:26.613Z,22.71
2019-02-20T05:46:26.568Z,22.73
2019-02-20T05:47:26.556Z,22.70
2019-02-20T05:48:26.541Z,22.70
2019-02-20T05:49:26.531Z,22.70
2019-02-20T05:50:26.542Z,22.66
2019-02-20T05:51:26.519Z,22.69
2019-02-20T05:52:26.573Z,22.71
2019-02-20T05:53:26.486Z,22.67
2019-02-20T05:54:34.216Z,22.66
2019-02-20T05:55:27.477Z,22.70
2019-02-20T05:56:26.466Z,22.71
2019-02-20T05:57:26.462Z,22.73
2019-02-20T05:58:26.444Z,22.73
2019-02-20T05:59:26.419Z,22.70
2019-02-20T06:00:26.421Z,22.70
2019-02-20T06:01:26.404Z,22.69
2019-02-20T06:02:26.395Z,22.78
2019-02-20T06:03:26.377Z,22.69
2019-02-20T06:04:26.366Z,22.64
2019-02-20T06:05:26.365Z,22.70
2019-02-20T06:06:26.342Z,22.67
2019-02-20T06:07:26.336Z,22.67
2019-02-20T06:08:26.323Z,22.71
2019-02-20T06:09:26.313Z,22.64
2019-02-20T06:10:26.310Z,22.67
2019-02-20T06:11:26.305Z,22.67
2019-02-20T06:12:26.276Z,22.71
2019-02-20T06:13:26.266Z,22.71
2019-02-20T06:14:26.264Z,22.71
2019-02-20T06:15:26.310Z,22.73
2019-02-20T06:16:26.234Z,22.75
2019-02-20T06:17:26.222Z,22.76
2019-02-20T06:18:26.212Z,22.71
2019-02-20T06:19:26.205Z,22.70
2019-02-20T06:20:26.218Z,22.71
2019-02-20T06:21:26.198Z,22.76
2019-02-20T06:22:26.184Z,22.70
2019-02-20T06:23:26.159Z,22.73
2019-02-20T06:24:26.164Z,22.67
2019-02-20T06:25:26.140Z,22.69
2019-02-20T06:26:26.163Z,22.71
2019-02-20T06:27:26.118Z,22.76
2019-02-20T06:28:26.111Z,22.67
2019-02-20T06:29:26.101Z,22.67
2019-02-20T06:30:26.093Z,22.73
2019-02-20T06:31:26.096Z,22.70
2019-02-20T06:32:26.060Z,22.79
2019-02-20T06:33:26.049Z,22.75
2019-02-20T06:34:26.165Z,22.79
2019-02-20T06:35:26.058Z,22.76
2019-02-20T06:36:26.028Z,22.75
2019-02-20T06:37:26.004Z,22.66
2019-02-20T06:38:26.002Z,22.69
2019-02-20T06:39:25.990Z,22.71
2019-02-20T06:40:25.980Z,22.71
2019-02-20T06:41:25.988Z,22.76
2019-02-20T06:42:25.983Z,22.66
2019-02-20T06:43:25.969Z,22.67
2019-02-20T06:44:25.971Z,22.66
2019-02-20T06:45:25.917Z,22.71
2019-02-20T06:46:25.941Z,22.71
2019-02-20T06:47:25.894Z,22.70
2019-02-20T06:48:25.892Z,22.75
2019-02-20T06:49:25.876Z,22.70
2019-02-20T06:50:25.864Z,22.75
2019-02-20T06:51:25.866Z,22.63
2019-02-20T06:52:25.878Z,22.69
2019-02-20T06:53:25.842Z,22.57
2019-02-20T06:54:25.843Z,22.64
2019-02-20T06:55:25.804Z,22.70
2019-02-20T06:56:25.871Z,22.76
2019-02-20T06:57:25.831Z,22.73
2019-02-20T06:58:25.774Z,22.75
2019-02-20T06:59:25.763Z,22.75
2019-02-20T07:00:25.750Z,22.71
2019-02-20T07:01:25.804Z,22.69
2019-02-20T07:02:25.733Z,22.78
2019-02-20T07:03:25.719Z,22.67
2019-02-20T07:04:25.713Z,22.70
2019-02-20T07:05:25.704Z,22.73
2019-02-20T07:06:25.695Z,22.67
2019-02-20T07:07:25.685Z,22.64
2019-02-20T07:08:25.664Z,22.69
2019-02-20T07:09:25.654Z,22.75
2019-02-20T07:10:25.654Z,22.70
2019-02-20T07:11:25.650Z,22.67
2019-02-20T07:12:25.620Z,22.76
2019-02-20T07:13:25.612Z,22.66
2019-02-20T07:14:25.601Z,22.73
2019-02-20T07:15:25.588Z,22.71
2019-02-20T07:16:25.590Z,22.67
2019-02-20T07:17:25.585Z,22.76
2019-02-20T07:18:25.553Z,22.70
2019-02-20T07:19:25.572Z,22.75
2019-02-20T07:20:25.547Z,22.76
2019-02-20T07:21:25.551Z,22.71
2019-02-20T07:22:25.513Z,22.69
2019-02-20T07:23:25.508Z,22.67
2019-02-20T07:24:25.488Z,22.71
2019-02-20T07:25:25.474Z,22.78
2019-02-20T07:26:25.477Z,22.69
2019-02-20T07:27:25.456Z,22.66
2019-02-20T07:28:25.443Z,22.73
2019-02-20T07:29:25.433Z,22.76
2019-02-20T07:30:25.444Z,22.66
2019-02-20T07:31:25.430Z,22.76
2019-02-20T07:32:25.401Z,22.69
2019-02-20T07:33:25.387Z,22.69
2019-02-20T07:34:25.387Z,22.67
2019-02-20T07:35:25.367Z,22.61
2019-02-20T07:36:25.357Z,22.69
2019-02-20T07:37:25.368Z,22.73
2019-02-20T07:38:25.331Z,22.71
2019-02-20T07:39:25.325Z,22.66
2019-02-20T07:40:25.341Z,22.67
2019-02-20T07:41:25.301Z,22.69
2019-02-20T07:42:25.304Z,22.73
2019-02-20T07:43:25.292Z,22.75
2019-02-20T07:44:25.269Z,22.70
2019-02-20T07:45:25.260Z,22.63
2019-02-20T07:46:25.252Z,22.69
2019-02-20T07:47:25.247Z,22.71
2019-02-20T07:48:25.223Z,22.71
2019-02-20T07:49:25.217Z,22.67
2019-02-20T07:50:25.202Z,22.73
2019-02-20T07:51:25.201Z,22.71
2019-02-20T07:52:25.212Z,22.73
2019-02-20T07:53:25.175Z,22.71
2019-02-20T07:54:25.177Z,22.69
2019-02-20T07:55:25.152Z,22.69
2019-02-20T07:56:25.152Z,22.70
2019-02-20T07:57:25.154Z,22.64
2019-02-20T07:58:25.113Z,22.76
2019-02-20T07:59:25.106Z,22.70
2019-02-20T08:00:25.100Z,22.73
2019-02-20T08:01:25.092Z,22.69
2019-02-20T08:02:25.084Z,22.70
2019-02-20T08:03:25.127Z,22.70
2019-02-20T08:04:25.045Z,22.66
2019-02-20T08:05:25.039Z,22.66
2019-02-20T08:06:25.032Z,22.73
2019-02-20T08:07:25.024Z,22.67
2019-02-20T08:08:25.004Z,22.70
2019-02-20T08:09:24.993Z,22.67
2019-02-20T08:10:24.981Z,22.73
2019-02-20T08:11:24.974Z,22.73
2019-02-20T08:12:24.976Z,22.67
2019-02-20T08:13:24.961Z,22.75
2019-02-20T08:14:24.945Z,22.75
2019-02-20T08:15:24.925Z,22.73
2019-02-20T08:16:24.920Z,22.67
2019-02-20T08:17:24.919Z,22.73
2019-02-20T08:18:24.893Z,22.71
2019-02-20T08:19:24.883Z,22.73
2019-02-20T08:20:24.875Z,22.71
2019-02-20T08:21:24.862Z,22.70
2019-02-20T08:22:24.869Z,22.70
2019-02-20T08:23:24.842Z,22.67
2019-02-20T08:24:24.837Z,22.75
2019-02-20T08:25:24.822Z,22.81
2019-02-20T08:26:24.827Z,22.78
2019-02-20T08:27:24.808Z,22.71
2019-02-20T08:28:24.783Z,22.70
2019-02-20T08:29:24.792Z,22.61
2019-02-20T08:30:24.769Z,22.73
2019-02-20T08:31:24.752Z,22.67
2019-02-20T08:32:24.756Z,22.71
2019-02-20T08:33:24.731Z,22.69
2019-02-20T08:34:24.719Z,22.61
2019-02-20T08:35:24.705Z,22.67
2019-02-20T08:36:24.706Z,22.67
2019-02-20T08:37:24.720Z,22.67
2019-02-20T08:38:24.673Z,22.79
2019-02-20T08:39:24.659Z,22.70
2019-02-20T08:40:24.653Z,22.67
2019-02-20T08:41:24.644Z,22.61
2019-02-20T08:42:24.627Z,22.78
2019-02-20T08:43:24.631Z,22.79
2019-02-20T08:44:24.605Z,22.78
2019-02-20T08:45:24.593Z,22.70
2019-02-20T08:46:24.689Z,22.78
2019-02-20T08:47:24.580Z,22.71
2019-02-20T08:48:26.486Z,22.71
2019-02-20T08:49:24.563Z,22.70
2019-02-20T08:50:24.539Z,22.73
2019-02-20T08:51:24.526Z,22.69
2019-02-20T08:52:24.515Z,22.69
2019-02-20T08:53:24.520Z,22.73
2019-02-20T08:54:24.498Z,22.70
2019-02-20T08:55:31.783Z,22.70
2019-02-20T08:56:25.477Z,22.78
2019-02-20T08:57:24.472Z,22.70
2019-02-20T08:58:24.472Z,22.67
2019-02-20T08:59:24.442Z,22.73
2019-02-20T09:00:24.442Z,22.82
2019-02-20T09:01:24.416Z,22.70
2019-02-20T09:02:24.406Z,22.69
2019-02-20T09:03:24.412Z,22.75
2019-02-20T09:04:24.383Z,22.66
2019-02-20T09:05:24.376Z,22.76
2019-02-20T09:06:24.367Z,22.69
2019-02-20T09:07:24.356Z,22.71
2019-02-20T09:08:24.361Z,22.73
2019-02-20T09:09:24.352Z,22.70
2019-02-20T09:10:24.317Z,22.73
2019-02-20T09:11:24.310Z,22.78
2019-02-20T09:12:24.311Z,22.75
2019-02-20T09:13:24.297Z,22.73
2019-02-20T09:14:24.281Z,22.66
2019-02-20T09:15:24.266Z,22.66
2019-02-20T09:16:24.261Z,22.71
2019-02-20T09:17:24.281Z,22.71
2019-02-20T09:18:24.258Z,22.64
2019-02-20T09:19:24.216Z,22.73
2019-02-20T09:20:24.208Z,22.63
2019-02-20T09:21:24.231Z,22.75
2019-02-20T09:22:24.185Z,22.67
2019-02-20T09:23:24.193Z,22.71
2019-02-20T09:24:24.163Z,22.63
2019-02-20T09:25:24.158Z,22.73
2019-02-20T09:26:24.143Z,22.73
2019-02-20T09:27:24.133Z,22.67
2019-02-20T09:28:24.132Z,22.66
2019-02-20T09:29:24.134Z,22.67
2019-02-20T09:30:28.478Z,22.75
2019-02-20T09:31:25.084Z,22.73
2019-02-20T09:32:24.091Z,22.75
2019-02-20T09:33:24.099Z,22.73
2019-02-20T09:34:24.058Z,22.69
2019-02-20T09:35:24.059Z,22.67
2019-02-20T09:36:24.033Z,22.75
2019-02-20T09:37:24.031Z,22.66
2019-02-20T09:38:24.008Z,22.67
2019-02-20T09:39:24.016Z,22.73
2019-02-20T09:40:23.988Z,22.76
2019-02-20T09:41:23.975Z,22.70
2019-02-20T09:42:23.966Z,22.73
2019-02-20T09:43:23.953Z,22.71
2019-02-20T09:44:23.959Z,22.71
2019-02-20T09:45:23.936Z,22.73
2019-02-20T09:46:23.921Z,22.59
2019-02-20T09:47:23.908Z,22.70
2019-02-20T09:48:23.900Z,22.69
2019-02-20T09:49:23.903Z,22.70
2019-02-20T09:50:23.877Z,22.66
2019-02-20T09:51:23.864Z,22.69
2019-02-20T09:52:23.859Z,22.70
2019-02-20T09:53:23.847Z,22.69
2019-02-20T09:54:23.846Z,22.73
2019-02-20T09:55:23.822Z,22.76
2019-02-20T09:56:23.817Z,22.70
2019-02-20T09:57:23.824Z,22.69
2019-02-20T09:58:23.814Z,22.70
2019-02-20T09:59:23.789Z,22.76
2019-02-20T10:00:23.772Z,22.67
2019-02-20T10:01:23.756Z,22.70
2019-02-20T10:02:23.749Z,22.67
2019-02-20T10:03:23.738Z,22.69
2019-02-20T10:04:23.745Z,22.73
2019-02-20T10:05:23.709Z,22.71
2019-02-20T10:06:23.704Z,22.66
2019-02-20T10:07:23.688Z,22.76
2019-02-20T10:08:23.702Z,22.66
2019-02-20T10:09:23.680Z,22.61
2019-02-20T10:10:23.656Z,22.70
2019-02-20T10:11:23.698Z,22.73
2019-02-20T10:12:23.631Z,22.71
2019-02-20T10:13:23.626Z,22.67
2019-02-20T10:14:23.642Z,22.73
2019-02-20T10:15:23.599Z,22.67
2019-02-20T10:16:23.588Z,22.71
2019-02-20T10:17:23.579Z,22.70
2019-02-20T10:18:23.569Z,22.73
2019-02-20T10:19:23.611Z,22.71
2019-02-20T10:20:23.592Z,22.69
2019-02-20T10:21:23.550Z,22.71
2019-02-20T10:22:23.528Z,22.76
2019-02-20T10:23:23.516Z,22.75
2019-02-20T10:24:23.499Z,22.71
2019-02-20T10:25:23.509Z,22.71
2019-02-20T10:26:23.486Z,22.71
2019-02-20T10:27:23.471Z,22.73
2019-02-20T10:28:23.466Z,22.64
2019-02-20T10:29:23.443Z,22.71
2019-02-20T10:30:23.472Z,22.75
2019-02-20T10:31:23.448Z,22.70
2019-02-20T10:32:23.411Z,22.67
2019-02-20T10:33:23.403Z,22.73
2019-02-20T10:34:23.415Z,22.63
2019-02-20T10:35:23.402Z,22.73
2019-02-20T10:36:23.369Z,22.71
2019-02-20T10:37:23.371Z,22.67
2019-02-20T10:38:23.349Z,22.67
2019-02-20T10:39:23.334Z,22.76
2019-02-20T10:40:23.339Z,22.69
2019-02-20T10:41:23.311Z,22.71
2019-02-20T10:42:23.302Z,22.71
2019-02-20T10:43:23.303Z,22.73
2019-02-20T10:44:23.294Z,22.67
2019-02-20T10:45:23.284Z,22.66
2019-02-20T10:46:23.256Z,22.67
2019-02-20T10:47:23.248Z,22.67
2019-02-20T10:48:23.235Z,22.66
2019-02-20T10:49:23.836Z,22.73
2019-02-20T10:50:23.240Z,22.64
2019-02-20T10:51:23.218Z,22.78
2019-02-20T10:52:23.189Z,22.73
2019-02-20T10:53:23.187Z,22.75
2019-02-20T10:54:23.195Z,22.67
2019-02-20T10:55:23.170Z,22.69
2019-02-20T10:56:23.166Z,22.73
2019-02-20T10:57:23.138Z,22.69
2019-02-20T10:58:23.121Z,22.75
2019-02-20T10:59:23.116Z,22.70
2019-02-20T11:00:24.237Z,22.79
2019-02-20T11:01:23.092Z,22.69
2019-02-20T11:02:23.092Z,22.66
2019-02-20T11:03:23.073Z,22.66
2019-02-20T11:04:23.066Z,22.70
2019-02-20T11:05:23.070Z,22.69
2019-02-20T11:06:23.046Z,22.78
2019-02-20T11:07:23.042Z,22.71
2019-02-20T11:08:23.025Z,22.75
2019-02-20T11:09:23.004Z,22.75
2019-02-20T11:10:24.113Z,22.66
2019-02-20T11:11:22.978Z,22.67
2019-02-20T11:12:22.973Z,22.66
2019-02-20T11:13:22.956Z,22.71
2019-02-20T11:14:22.948Z,22.75
2019-02-20T11:15:23.101Z,22.67
2019-02-20T11:16:22.925Z,22.71
2019-02-20T11:17:22.958Z,22.73
2019-02-20T11:18:22.904Z,22.76
2019-02-20T11:19:22.896Z,22.70
2019-02-20T11:20:22.909Z,22.78
2019-02-20T11:21:22.867Z,22.73
2019-02-20T11:22:22.891Z,22.76
2019-02-20T11:23:22.855Z,22.79
2019-02-20T11:24:22.839Z,22.73
2019-02-20T11:25:22.835Z,22.71
2019-02-20T11:26:22.836Z,22.75
2019-02-20T11:27:22.803Z,22.75
2019-02-20T11:28:27.011Z,22.73
2019-02-20T11:29:22.792Z,22.67
2019-02-20T11:30:22.780Z,22.73
2019-02-20T11:31:22.778Z,22.76
2019-02-20T11:32:22.753Z,22.75
2019-02-20T11:33:22.738Z,22.70
2019-02-20T11:34:22.728Z,22.71
2019-02-20T11:35:22.712Z,22.73
2019-02-20T11:36:22.737Z,22.59
2019-02-20T11:37:22.694Z,22.69
2019-02-20T11:38:22.680Z,22.78
2019-02-20T11:39:22.676Z,22.69
2019-02-20T11:40:22.684Z,22.78
2019-02-20T11:41:22.669Z,22.71
2019-02-20T11:42:22.651Z,22.69
2019-02-20T11:43:22.630Z,22.79
2019-02-20T11:44:22.615Z,22.76
2019-02-20T11:45:22.603Z,22.69
2019-02-20T11:46:22.606Z,22.69
2019-02-20T11:47:22.581Z,22.67
2019-02-20T11:48:22.572Z,22.69
2019-02-20T11:49:22.559Z,22.70
2019-02-20T11:50:22.552Z,22.79
2019-02-20T11:51:22.553Z,22.73
2019-02-20T11:52:22.538Z,22.69
2019-02-20T11:53:22.539Z,22.71
2019-02-20T11:54:22.502Z,22.71
2019-02-20T11:55:22.495Z,22.73
2019-02-20T11:56:26.535Z,22.75
2019-02-20T11:57:22.475Z,22.71
2019-02-20T11:58:22.459Z,22.71
2019-02-20T11:59:22.456Z,22.71
2019-02-20T12:00:22.437Z,22.76
2019-02-20T12:01:22.604Z,22.70
2019-02-20T12:02:22.414Z,22.75
2019-02-20T12:03:22.430Z,22.71
2019-02-20T12:04:22.395Z,22.81
2019-02-20T12:05:22.380Z,22.73
2019-02-20T12:06:22.382Z,22.73
2019-02-20T12:07:22.363Z,22.75
2019-02-20T12:08:22.349Z,22.78
2019-02-20T12:09:22.344Z,22.79
2019-02-20T12:10:22.335Z,22.76
2019-02-20T12:11:22.340Z,22.75
2019-02-20T12:12:22.335Z,22.69
2019-02-20T12:13:22.312Z,22.75
2019-02-20T12:14:24.211Z,22.73
2019-02-20T12:15:22.273Z,22.78
2019-02-20T12:16:22.267Z,22.76
2019-02-20T12:17:22.263Z,22.81
2019-02-20T12:18:22.237Z,22.84
2019-02-20T12:19:23.569Z,22.79
2019-02-20T12:20:22.217Z,22.81
2019-02-20T12:21:22.218Z,22.79
2019-02-20T12:22:22.214Z,22.78
2019-02-20T12:23:22.181Z,22.75
2019-02-20T12:24:22.170Z,22.71
2019-02-20T12:25:22.158Z,22.75
2019-02-20T12:26:24.006Z,22.76
2019-02-20T12:27:22.155Z,22.84
2019-02-20T12:28:22.128Z,22.71
2019-02-20T12:29:22.121Z,22.81
2019-02-20T12:30:22.105Z,22.73
2019-02-20T12:31:22.096Z,22.73
2019-02-20T12:32:22.103Z,22.82
2019-02-20T12:33:22.076Z,22.78
2019-02-20T12:34:22.068Z,22.76
2019-02-20T12:35:22.051Z,22.81
2019-02-20T12:36:22.038Z,22.84
2019-02-20T12:37:22.041Z,22.78
2019-02-20T12:38:22.019Z,22.78
2019-02-20T12:39:22.014Z,22.85
2019-02-20T12:40:21.994Z,22.79
2019-02-20T12:41:21.989Z,22.79
2019-02-20T12:42:21.983Z,22.78
2019-02-20T12:43:21.963Z,22.81
2019-02-20T12:44:21.951Z,22.78
2019-02-20T12:45:21.943Z,22.79
2019-02-20T12:46:21.951Z,22.81
2019-02-20T12:47:21.936Z,22.75
2019-02-20T12:48:21.911Z,22.76
2019-02-20T12:49:21.920Z,22.79
2019-02-20T12:50:21.884Z,22.78
2019-02-20T12:51:21.895Z,22.76
2019-02-20T12:52:21.873Z,22.70